sensor_id;sensor_type;location;lat;lon;timestamp;P1;durP1;ratioP1;P2;durP2;ratioP2
5237;SDS011;2639;49.700;7.962;2022-07-18T03:21:18;2.63;;;1.27;;
5237;SDS011;2639;49.700;7.962;2022-07-18T03:24:28;2.37;;;1.10;;
5237;SDS011;2639;49.700;7.962;2022-07-18T03:27:38;2.97;;;1.20;;
5237;SDS011;2639;49.700;7.962;2022-07-18T03:30:48;1.97;;;1.10;;
5237;SDS011;2639;49.700;7.962;2022-07-18T03:33:57;3.40;;;1.30;;
5237;SDS011;2639;49.700;7.962;2022-07-18T03:37:09;1.43;;;1.13;;
5237;SDS011;2639;49.700;7.962;2022-07-18T03:40:18;2.17;;;1.00;;
5237;SDS011;2639;49.700;7.962;2022-07-18T03:43:28;3.30;;;1.20;;
5237;SDS011;2639;49.700;7.962;2022-07-18T03:46:38;2.77;;;1.10;;
5237;SDS011;2639;49.700;7.962;2022-07-18T03:49:48;1.87;;;1.20;;
5237;SDS011;2639;49.700;7.962;2022-07-18T03:53:01;1.60;;;1.30;;
5237;SDS011;2639;49.700;7.962;2022-07-18T03:56:11;2.33;;;1.30;;
5237;SDS011;2639;49.700;7.962;2022-07-18T03:59:20;2.90;;;1.37;;
5237;SDS011;2639;49.700;7.962;2022-07-18T04:02:30;3.90;;;1.30;;
5237;SDS011;2639;49.700;7.962;2022-07-18T04:05:39;2.23;;;1.40;;
5237;SDS011;2639;49.700;7.962;2022-07-18T04:08:50;1.60;;;1.33;;
5237;SDS011;2639;49.700;7.962;2022-07-18T04:12:00;2.10;;;1.27;;
5237;SDS011;2639;49.700;7.962;2022-07-18T04:15:09;1.40;;;1.30;;
5237;SDS011;2639;49.700;7.962;2022-07-18T04:18:19;1.70;;;1.10;;
5237;SDS011;2639;49.700;7.962;2022-07-18T04:21:28;2.53;;;1.27;;
5237;SDS011;2639;49.700;7.962;2022-07-18T04:24:39;1.93;;;1.30;;
5237;SDS011;2639;49.700;7.962;2022-07-18T04:27:49;2.60;;;1.30;;
5237;SDS011;2639;49.700;7.962;2022-07-18T04:35:40;2.57;;;1.40;;
5237;SDS011;2639;49.700;7.962;2022-07-18T04:38:50;1.40;;;1.30;;
5237;SDS011;2639;49.700;7.962;2022-07-18T04:42:00;2.03;;;1.20;;
5237;SDS011;2639;49.700;7.962;2022-07-18T04:45:11;3.47;;;1.20;;
5237;SDS011;2639;49.700;7.962;2022-07-18T04:48:21;1.67;;;1.30;;
5237;SDS011;2639;49.700;7.962;2022-07-18T04:51:30;1.37;;;1.20;;
5237;SDS011;2639;49.700;7.962;2022-07-18T04:54:40;2.37;;;1.40;;
5237;SDS011;2639;49.700;7.962;2022-07-18T04:57:52;1.40;;;1.30;;
5237;SDS011;2639;49.700;7.962;2022-07-18T06:47:56;4.37;;;1.63;;
5237;SDS011;2639;49.700;7.962;2022-07-18T06:51:11;7.07;;;1.63;;
5237;SDS011;2639;49.700;7.962;2022-07-18T06:54:21;3.87;;;1.50;;
5237;SDS011;2639;49.700;7.962;2022-07-18T06:57:35;3.20;;;1.50;;
5237;SDS011;2639;49.700;7.962;2022-07-18T07:00:45;3.87;;;1.60;;
5237;SDS011;2639;49.700;7.962;2022-07-18T07:03:56;2.53;;;1.40;;
5237;SDS011;2639;49.700;7.962;2022-07-18T07:07:06;3.13;;;1.10;;
5237;SDS011;2639;49.700;7.962;2022-07-18T07:10:16;1.20;;;1.10;;
5237;SDS011;2639;49.700;7.962;2022-07-18T07:13:26;2.67;;;1.13;;
5237;SDS011;2639;49.700;7.962;2022-07-18T07:16:36;3.47;;;1.40;;
5237;SDS011;2639;49.700;7.962;2022-07-18T07:19:47;2.63;;;1.40;;
5237;SDS011;2639;49.700;7.962;2022-07-18T07:22:57;3.27;;;1.40;;
5237;SDS011;2639;49.700;7.962;2022-07-18T07:26:13;2.73;;;1.20;;
5237;SDS011;2639;49.700;7.962;2022-07-18T07:29:22;3.07;;;1.50;;
5237;SDS011;2639;49.700;7.962;2022-07-18T07:32:33;1.90;;;1.20;;
5237;SDS011;2639;49.700;7.962;2022-07-18T07:35:46;1.67;;;1.13;;
5237;SDS011;2639;49.700;7.962;2022-07-18T07:38:56;1.60;;;1.20;;
5237;SDS011;2639;49.700;7.962;2022-07-18T07:42:05;2.73;;;1.37;;
5237;SDS011;2639;49.700;7.962;2022-07-18T07:45:15;2.83;;;1.30;;
5237;SDS011;2639;49.700;7.962;2022-07-18T07:48:26;3.07;;;1.33;;
5237;SDS011;2639;49.700;7.962;2022-07-18T07:51:36;4.73;;;1.40;;
5237;SDS011;2639;49.700;7.962;2022-07-18T07:54:47;3.40;;;1.30;;
5237;SDS011;2639;49.700;7.962;2022-07-18T07:57:56;1.20;;;1.00;;
5237;SDS011;2639;49.700;7.962;2022-07-18T08:01:06;1.03;;;0.90;;
5237;SDS011;2639;49.700;7.962;2022-07-18T08:04:16;2.80;;;1.40;;
5237;SDS011;2639;49.700;7.962;2022-07-18T08:07:27;2.67;;;1.47;;
5237;SDS011;2639;49.700;7.962;2022-07-18T08:10:37;3.70;;;1.40;;
5237;SDS011;2639;49.700;7.962;2022-07-18T08:13:51;3.17;;;1.07;;
5237;SDS011;2639;49.700;7.962;2022-07-18T08:17:05;3.27;;;1.23;;
5237;SDS011;2639;49.700;7.962;2022-07-18T08:20:15;3.60;;;1.23;;
5237;SDS011;2639;49.700;7.962;2022-07-18T08:23:29;5.60;;;1.30;;
5237;SDS011;2639;49.700;7.962;2022-07-18T08:26:38;2.00;;;1.10;;
5237;SDS011;2639;49.700;7.962;2022-07-18T08:29:48;4.33;;;1.17;;
5237;SDS011;2639;49.700;7.962;2022-07-18T08:33:14;2.13;;;1.00;;
5237;SDS011;2639;49.700;7.962;2022-07-18T08:36:27;3.33;;;1.23;;
5237;SDS011;2639;49.700;7.962;2022-07-18T08:39:38;7.07;;;1.77;;
5237;SDS011;2639;49.700;7.962;2022-07-18T08:42:48;2.47;;;1.40;;
5237;SDS011;2639;49.700;7.962;2022-07-18T08:46:20;2.10;;;1.03;;
5237;SDS011;2639;49.700;7.962;2022-07-18T08:49:30;3.63;;;1.10;;
5237;SDS011;2639;49.700;7.962;2022-07-18T08:52:41;2.13;;;1.20;;
5237;SDS011;2639;49.700;7.962;2022-07-18T08:56:03;1.33;;;1.03;;
5237;SDS011;2639;49.700;7.962;2022-07-18T08:59:13;2.77;;;1.10;;
5237;SDS011;2639;49.700;7.962;2022-07-18T09:02:24;3.47;;;1.03;;
5237;SDS011;2639;49.700;7.962;2022-07-18T09:05:34;2.40;;;1.30;;
5237;SDS011;2639;49.700;7.962;2022-07-18T09:08:56;1.50;;;0.80;;
5237;SDS011;2639;49.700;7.962;2022-07-18T09:12:09;4.30;;;1.50;;
5237;SDS011;2639;49.700;7.962;2022-07-18T09:15:19;2.27;;;1.20;;
5237;SDS011;2639;49.700;7.962;2022-07-18T09:18:29;3.50;;;1.20;;
5237;SDS011;2639;49.700;7.962;2022-07-18T09:21:45;2.13;;;1.10;;
5237;SDS011;2639;49.700;7.962;2022-07-18T09:24:57;2.63;;;1.27;;
5237;SDS011;2639;49.700;7.962;2022-07-18T09:28:09;3.33;;;1.20;;
5237;SDS011;2639;49.700;7.962;2022-07-18T09:31:20;1.87;;;1.13;;
5237;SDS011;2639;49.700;7.962;2022-07-18T09:34:32;5.03;;;1.53;;
5237;SDS011;2639;49.700;7.962;2022-07-18T09:37:53;2.13;;;1.10;;
5237;SDS011;2639;49.700;7.962;2022-07-18T09:41:04;2.70;;;1.30;;
5237;SDS011;2639;49.700;7.962;2022-07-18T09:44:21;2.53;;;1.20;;
5237;SDS011;2639;49.700;7.962;2022-07-18T09:47:31;3.30;;;1.07;;
5237;SDS011;2639;49.700;7.962;2022-07-18T09:50:41;3.93;;;1.50;;
5237;SDS011;2639;49.700;7.962;2022-07-18T09:53:52;3.43;;;1.40;;
5237;SDS011;2639;49.700;7.962;2022-07-18T09:57:04;2.30;;;1.30;;
5237;SDS011;2639;49.700;7.962;2022-07-18T10:00:14;3.50;;;1.23;;
5237;SDS011;2639;49.700;7.962;2022-07-18T10:03:24;3.30;;;1.40;;
5237;SDS011;2639;49.700;7.962;2022-07-18T10:06:35;2.33;;;1.50;;
5237;SDS011;2639;49.700;7.962;2022-07-18T10:09:46;4.23;;;1.17;;
5237;SDS011;2639;49.700;7.962;2022-07-18T10:12:57;3.83;;;1.60;;
5237;SDS011;2639;49.700;7.962;2022-07-18T10:16:12;3.87;;;1.20;;
5237;SDS011;2639;49.700;7.962;2022-07-18T10:19:23;2.80;;;1.33;;
5237;SDS011;2639;49.700;7.962;2022-07-18T10:22:34;4.10;;;1.60;;
5237;SDS011;2639;49.700;7.962;2022-07-18T10:29:16;4.90;;;1.53;;
5237;SDS011;2639;49.700;7.962;2022-07-18T10:32:34;3.97;;;1.47;;
5237;SDS011;2639;49.700;7.962;2022-07-18T10:39:19;2.30;;;1.37;;
5237;SDS011;2639;49.700;7.962;2022-07-18T10:42:31;2.50;;;1.30;;
5237;SDS011;2639;49.700;7.962;2022-07-18T10:45:42;4.17;;;1.50;;
5237;SDS011;2639;49.700;7.962;2022-07-18T10:48:56;3.37;;;1.70;;
5237;SDS011;2639;49.700;7.962;2022-07-18T10:52:06;1.93;;;1.10;;
5237;SDS011;2639;49.700;7.962;2022-07-18T10:55:35;1.70;;;1.20;;
5237;SDS011;2639;49.700;7.962;2022-07-18T10:58:45;2.63;;;1.53;;
5237;SDS011;2639;49.700;7.962;2022-07-18T11:01:55;2.73;;;1.10;;
5237;SDS011;2639;49.700;7.962;2022-07-18T11:08:44;4.00;;;1.40;;
5237;SDS011;2639;49.700;7.962;2022-07-18T11:15:28;2.10;;;1.23;;
5237;SDS011;2639;49.700;7.962;2022-07-18T11:19:14;2.57;;;1.40;;
5237;SDS011;2639;49.700;7.962;2022-07-18T11:22:28;4.83;;;1.23;;
5237;SDS011;2639;49.700;7.962;2022-07-18T11:25:39;1.97;;;1.30;;
5237;SDS011;2639;49.700;7.962;2022-07-18T11:29:07;3.23;;;1.20;;
5237;SDS011;2639;49.700;7.962;2022-07-18T11:32:23;3.67;;;1.27;;
5237;SDS011;2639;49.700;7.962;2022-07-18T11:35:33;2.60;;;1.10;;
5237;SDS011;2639;49.700;7.962;2022-07-18T11:38:46;6.43;;;1.10;;
5237;SDS011;2639;49.700;7.962;2022-07-18T11:41:57;2.27;;;1.50;;
5237;SDS011;2639;49.700;7.962;2022-07-18T11:45:09;2.87;;;1.43;;
5237;SDS011;2639;49.700;7.962;2022-07-18T11:48:20;5.43;;;1.40;;
5237;SDS011;2639;49.700;7.962;2022-07-18T11:51:33;3.17;;;1.20;;
5237;SDS011;2639;49.700;7.962;2022-07-18T11:54:45;3.83;;;1.40;;
5237;SDS011;2639;49.700;7.962;2022-07-18T11:57:55;4.37;;;1.40;;
5237;SDS011;2639;49.700;7.962;2022-07-18T12:01:15;3.10;;;1.37;;
5237;SDS011;2639;49.700;7.962;2022-07-18T12:04:25;2.33;;;1.30;;
5237;SDS011;2639;49.700;7.962;2022-07-18T12:07:35;3.07;;;1.70;;
5237;SDS011;2639;49.700;7.962;2022-07-18T12:14:15;3.03;;;1.30;;
5237;SDS011;2639;49.700;7.962;2022-07-18T12:17:25;6.50;;;1.53;;
5237;SDS011;2639;49.700;7.962;2022-07-18T12:20:34;2.23;;;1.20;;
5237;SDS011;2639;49.700;7.962;2022-07-18T12:23:44;3.60;;;1.60;;
5237;SDS011;2639;49.700;7.962;2022-07-18T12:27:08;1.70;;;1.30;;
5237;SDS011;2639;49.700;7.962;2022-07-18T12:30:22;4.60;;;1.40;;
5237;SDS011;2639;49.700;7.962;2022-07-18T12:33:32;3.70;;;1.43;;
5237;SDS011;2639;49.700;7.962;2022-07-18T12:36:49;3.10;;;1.40;;
5237;SDS011;2639;49.700;7.962;2022-07-18T12:40:08;2.03;;;1.30;;
5237;SDS011;2639;49.700;7.962;2022-07-18T12:43:39;1.90;;;1.03;;
5237;SDS011;2639;49.700;7.962;2022-07-18T12:46:50;2.17;;;1.20;;
5237;SDS011;2639;49.700;7.962;2022-07-18T12:50:01;2.53;;;1.60;;
5237;SDS011;2639;49.700;7.962;2022-07-18T12:53:11;2.43;;;1.20;;
5237;SDS011;2639;49.700;7.962;2022-07-18T12:56:22;2.93;;;1.50;;
5237;SDS011;2639;49.700;7.962;2022-07-18T12:59:33;2.27;;;1.30;;
5237;SDS011;2639;49.700;7.962;2022-07-18T13:02:42;5.23;;;1.63;;
5237;SDS011;2639;49.700;7.962;2022-07-18T13:05:52;2.43;;;1.33;;
5237;SDS011;2639;49.700;7.962;2022-07-18T13:09:02;2.53;;;1.73;;
5237;SDS011;2639;49.700;7.962;2022-07-18T13:12:12;5.10;;;1.60;;
5237;SDS011;2639;49.700;7.962;2022-07-18T13:15:23;3.70;;;1.50;;
5237;SDS011;2639;49.700;7.962;2022-07-18T13:18:32;2.43;;;1.37;;
5237;SDS011;2639;49.700;7.962;2022-07-18T13:21:44;5.27;;;1.30;;
5237;SDS011;2639;49.700;7.962;2022-07-18T13:24:54;3.73;;;1.30;;
5237;SDS011;2639;49.700;7.962;2022-07-18T13:28:04;5.73;;;1.70;;
5237;SDS011;2639;49.700;7.962;2022-07-18T13:31:16;3.70;;;1.47;;
5237;SDS011;2639;49.700;7.962;2022-07-18T13:34:26;8.20;;;1.70;;
5237;SDS011;2639;49.700;7.962;2022-07-18T13:37:45;2.53;;;1.40;;
5237;SDS011;2639;49.700;7.962;2022-07-18T13:40:54;3.23;;;1.40;;
5237;SDS011;2639;49.700;7.962;2022-07-18T13:44:04;4.03;;;1.37;;
5237;SDS011;2639;49.700;7.962;2022-07-18T13:47:15;3.13;;;1.30;;
5237;SDS011;2639;49.700;7.962;2022-07-18T13:50:25;2.50;;;1.50;;
5237;SDS011;2639;49.700;7.962;2022-07-18T13:53:34;1.70;;;1.27;;
5237;SDS011;2639;49.700;7.962;2022-07-18T13:56:44;1.70;;;1.23;;
5237;SDS011;2639;49.700;7.962;2022-07-18T13:59:56;2.50;;;1.27;;
5237;SDS011;2639;49.700;7.962;2022-07-18T14:03:09;2.33;;;1.40;;
5237;SDS011;2639;49.700;7.962;2022-07-18T14:06:19;6.20;;;1.67;;
5237;SDS011;2639;49.700;7.962;2022-07-18T14:09:28;2.43;;;1.33;;
5237;SDS011;2639;49.700;7.962;2022-07-18T14:12:38;3.37;;;1.40;;
5237;SDS011;2639;49.700;7.962;2022-07-18T14:15:48;5.63;;;1.40;;
5237;SDS011;2639;49.700;7.962;2022-07-18T14:19:03;2.57;;;1.30;;
5237;SDS011;2639;49.700;7.962;2022-07-18T14:22:13;3.33;;;1.33;;
5237;SDS011;2639;49.700;7.962;2022-07-18T14:25:24;1.70;;;1.40;;
5237;SDS011;2639;49.700;7.962;2022-07-18T14:28:34;5.20;;;1.30;;
5237;SDS011;2639;49.700;7.962;2022-07-18T14:31:43;4.70;;;1.43;;
5237;SDS011;2639;49.700;7.962;2022-07-18T14:34:54;2.10;;;1.30;;
5237;SDS011;2639;49.700;7.962;2022-07-18T14:38:04;3.90;;;1.37;;
5237;SDS011;2639;49.700;7.962;2022-07-18T14:41:14;2.30;;;1.40;;
5237;SDS011;2639;49.700;7.962;2022-07-18T14:44:23;5.10;;;1.60;;
5237;SDS011;2639;49.700;7.962;2022-07-18T14:47:35;4.63;;;1.17;;
5237;SDS011;2639;49.700;7.962;2022-07-18T14:50:46;4.43;;;1.50;;
5237;SDS011;2639;49.700;7.962;2022-07-18T14:53:55;2.67;;;1.40;;
5237;SDS011;2639;49.700;7.962;2022-07-18T14:57:05;3.30;;;1.30;;
5237;SDS011;2639;49.700;7.962;2022-07-18T15:00:16;3.63;;;1.40;;
5237;SDS011;2639;49.700;7.962;2022-07-18T15:03:26;1.30;;;1.20;;
5237;SDS011;2639;49.700;7.962;2022-07-18T15:06:57;4.57;;;1.50;;
5237;SDS011;2639;49.700;7.962;2022-07-18T15:10:07;2.37;;;1.60;;
5237;SDS011;2639;49.700;7.962;2022-07-18T15:13:17;2.83;;;1.60;;
5237;SDS011;2639;49.700;7.962;2022-07-18T15:16:27;1.80;;;1.17;;
5237;SDS011;2639;49.700;7.962;2022-07-18T15:19:37;3.37;;;1.10;;
5237;SDS011;2639;49.700;7.962;2022-07-18T15:22:48;3.23;;;1.50;;
5237;SDS011;2639;49.700;7.962;2022-07-18T15:25:57;1.70;;;1.27;;
5237;SDS011;2639;49.700;7.962;2022-07-18T15:29:07;2.20;;;1.63;;
5237;SDS011;2639;49.700;7.962;2022-07-18T15:32:16;2.80;;;1.60;;
5237;SDS011;2639;49.700;7.962;2022-07-18T15:35:26;2.27;;;1.30;;
5237;SDS011;2639;49.700;7.962;2022-07-18T15:38:37;5.33;;;1.50;;
5237;SDS011;2639;49.700;7.962;2022-07-18T15:41:49;4.43;;;1.70;;
5237;SDS011;2639;49.700;7.962;2022-07-18T15:44:59;4.90;;;1.80;;
5237;SDS011;2639;49.700;7.962;2022-07-18T15:48:08;2.03;;;1.40;;
5237;SDS011;2639;49.700;7.962;2022-07-18T15:51:22;4.17;;;1.57;;
5237;SDS011;2639;49.700;7.962;2022-07-18T15:54:33;3.97;;;1.57;;
5237;SDS011;2639;49.700;7.962;2022-07-18T15:57:43;3.93;;;1.67;;
5237;SDS011;2639;49.700;7.962;2022-07-18T16:00:53;5.23;;;1.60;;
5237;SDS011;2639;49.700;7.962;2022-07-18T16:04:02;2.43;;;1.43;;
5237;SDS011;2639;49.700;7.962;2022-07-18T16:07:12;6.00;;;1.60;;
5237;SDS011;2639;49.700;7.962;2022-07-18T16:10:27;3.00;;;1.30;;
5237;SDS011;2639;49.700;7.962;2022-07-18T16:13:37;5.20;;;1.40;;
5237;SDS011;2639;49.700;7.962;2022-07-18T16:16:46;3.30;;;1.60;;
5237;SDS011;2639;49.700;7.962;2022-07-18T16:19:56;2.27;;;1.40;;
5237;SDS011;2639;49.700;7.962;2022-07-18T16:23:06;6.17;;;1.83;;
5237;SDS011;2639;49.700;7.962;2022-07-18T16:26:17;5.10;;;1.77;;
5237;SDS011;2639;49.700;7.962;2022-07-18T16:29:26;3.60;;;1.60;;
5237;SDS011;2639;49.700;7.962;2022-07-18T16:32:36;4.13;;;1.73;;
5237;SDS011;2639;49.700;7.962;2022-07-18T16:35:46;4.10;;;1.63;;
5237;SDS011;2639;49.700;7.962;2022-07-18T16:38:55;4.53;;;1.70;;
5237;SDS011;2639;49.700;7.962;2022-07-18T16:42:07;5.47;;;1.70;;
5237;SDS011;2639;49.700;7.962;2022-07-18T16:45:20;6.03;;;1.77;;
5237;SDS011;2639;49.700;7.962;2022-07-18T16:48:30;3.50;;;1.50;;
5237;SDS011;2639;49.700;7.962;2022-07-18T16:51:40;7.10;;;1.73;;
5237;SDS011;2639;49.700;7.962;2022-07-18T16:54:51;2.20;;;1.73;;
5237;SDS011;2639;49.700;7.962;2022-07-18T16:58:02;2.37;;;1.50;;
5237;SDS011;2639;49.700;7.962;2022-07-18T17:01:12;3.93;;;1.63;;
5237;SDS011;2639;49.700;7.962;2022-07-18T17:04:22;4.13;;;1.97;;
5237;SDS011;2639;49.700;7.962;2022-07-18T17:07:32;5.20;;;1.80;;
5237;SDS011;2639;49.700;7.962;2022-07-18T17:10:43;3.73;;;1.40;;
5237;SDS011;2639;49.700;7.962;2022-07-18T17:13:54;4.97;;;1.60;;
5237;SDS011;2639;49.700;7.962;2022-07-18T17:17:04;4.70;;;1.50;;
5237;SDS011;2639;49.700;7.962;2022-07-18T17:20:14;2.27;;;1.50;;
5237;SDS011;2639;49.700;7.962;2022-07-18T17:23:24;3.00;;;1.63;;
5237;SDS011;2639;49.700;7.962;2022-07-18T17:26:36;2.33;;;1.70;;
5237;SDS011;2639;49.700;7.962;2022-07-18T17:29:47;2.80;;;1.50;;
5237;SDS011;2639;49.700;7.962;2022-07-18T17:33:03;2.63;;;1.70;;
5237;SDS011;2639;49.700;7.962;2022-07-18T17:36:33;2.40;;;1.60;;
5237;SDS011;2639;49.700;7.962;2022-07-18T17:39:44;2.70;;;1.60;;
5237;SDS011;2639;49.700;7.962;2022-07-18T17:42:57;3.80;;;1.70;;
5237;SDS011;2639;49.700;7.962;2022-07-18T17:46:09;4.80;;;1.80;;
5237;SDS011;2639;49.700;7.962;2022-07-18T17:49:20;4.37;;;1.70;;
5237;SDS011;2639;49.700;7.962;2022-07-18T17:52:30;4.27;;;1.70;;
5237;SDS011;2639;49.700;7.962;2022-07-18T17:55:40;5.47;;;1.57;;
5237;SDS011;2639;49.700;7.962;2022-07-18T17:58:51;5.30;;;1.70;;
5237;SDS011;2639;49.700;7.962;2022-07-18T18:02:01;5.73;;;1.90;;
5237;SDS011;2639;49.700;7.962;2022-07-18T18:05:12;3.43;;;1.93;;
5237;SDS011;2639;49.700;7.962;2022-07-18T18:08:25;3.37;;;1.67;;
5237;SDS011;2639;49.700;7.962;2022-07-18T18:11:35;2.80;;;1.57;;
5237;SDS011;2639;49.700;7.962;2022-07-18T18:14:45;2.80;;;1.50;;
5237;SDS011;2639;49.700;7.962;2022-07-18T18:17:56;2.23;;;1.70;;
5237;SDS011;2639;49.700;7.962;2022-07-18T18:21:05;3.27;;;1.57;;
5237;SDS011;2639;49.700;7.962;2022-07-18T18:24:15;3.83;;;1.50;;
5237;SDS011;2639;49.700;7.962;2022-07-18T18:27:25;3.97;;;1.97;;
5237;SDS011;2639;49.700;7.962;2022-07-18T18:30:34;4.97;;;2.27;;
5237;SDS011;2639;49.700;7.962;2022-07-18T18:33:50;2.50;;;1.30;;
5237;SDS011;2639;49.700;7.962;2022-07-18T18:36:59;2.00;;;1.33;;
5237;SDS011;2639;49.700;7.962;2022-07-18T18:40:11;3.90;;;1.80;;
5237;SDS011;2639;49.700;7.962;2022-07-18T18:43:20;2.30;;;1.40;;
5237;SDS011;2639;49.700;7.962;2022-07-18T18:46:30;2.50;;;1.40;;
5237;SDS011;2639;49.700;7.962;2022-07-18T18:49:41;4.63;;;1.60;;
5237;SDS011;2639;49.700;7.962;2022-07-18T18:52:51;5.20;;;1.43;;
5237;SDS011;2639;49.700;7.962;2022-07-18T18:56:06;4.43;;;1.60;;
5237;SDS011;2639;49.700;7.962;2022-07-18T18:59:16;4.77;;;2.57;;
5237;SDS011;2639;49.700;7.962;2022-07-18T19:02:26;3.70;;;2.87;;
5237;SDS011;2639;49.700;7.962;2022-07-18T19:05:38;5.23;;;1.97;;
5237;SDS011;2639;49.700;7.962;2022-07-18T19:08:48;4.93;;;2.40;;
5237;SDS011;2639;49.700;7.962;2022-07-18T19:11:59;7.03;;;2.43;;
5237;SDS011;2639;49.700;7.962;2022-07-18T19:15:09;6.13;;;2.67;;
5237;SDS011;2639;49.700;7.962;2022-07-18T19:18:20;2.83;;;2.40;;
5237;SDS011;2639;49.700;7.962;2022-07-18T19:21:31;4.00;;;1.90;;
5237;SDS011;2639;49.700;7.962;2022-07-18T19:24:41;4.53;;;1.90;;
5237;SDS011;2639;49.700;7.962;2022-07-18T19:27:50;4.63;;;2.27;;
5237;SDS011;2639;49.700;7.962;2022-07-18T19:31:00;6.23;;;2.23;;
5237;SDS011;2639;49.700;7.962;2022-07-18T19:34:11;4.40;;;2.13;;
5237;SDS011;2639;49.700;7.962;2022-07-18T19:37:21;5.87;;;2.50;;
5237;SDS011;2639;49.700;7.962;2022-07-18T19:40:32;2.43;;;1.70;;
5237;SDS011;2639;49.700;7.962;2022-07-18T19:43:41;3.90;;;2.13;;
5237;SDS011;2639;49.700;7.962;2022-07-18T19:46:51;6.07;;;1.73;;
5237;SDS011;2639;49.700;7.962;2022-07-18T19:50:00;6.87;;;2.10;;
5237;SDS011;2639;49.700;7.962;2022-07-18T19:53:11;7.10;;;2.73;;
5237;SDS011;2639;49.700;7.962;2022-07-18T19:56:21;6.93;;;2.30;;
5237;SDS011;2639;49.700;7.962;2022-07-18T19:59:31;9.37;;;2.20;;
5237;SDS011;2639;49.700;7.962;2022-07-18T20:02:40;6.77;;;2.13;;
5237;SDS011;2639;49.700;7.962;2022-07-18T20:05:50;13.03;;;2.70;;
5237;SDS011;2639;49.700;7.962;2022-07-18T20:09:01;7.33;;;2.20;;
5237;SDS011;2639;49.700;7.962;2022-07-18T20:12:12;7.87;;;2.40;;
5237;SDS011;2639;49.700;7.962;2022-07-18T20:15:22;12.20;;;2.77;;
5237;SDS011;2639;49.700;7.962;2022-07-18T20:18:32;11.30;;;2.67;;
